YMAV/AVV METAR and TAF weather

Enter ICAO airport designator
Station Type Date Time Source
YMAV METAR 2019/07/20 05:00 UTC NOAA

YMAV 200500Z AUTO 02015KT 9999 // NCD 17/08 Q1013


Station Type Date Time Source
YMAV Decoded METAR 2019/07/20 05:00 UTC NOAA

Avalon, Avalon Airport, Australia (YMAV) 38-02S 144-29E
Jul 20, 2019 - 01:00 AM EDT / 2019.07.20 0500 UTC
Wind: from the NNE (020 degrees) at 17 MPH (15 KT):0
Visibility: greater than 7 mile(s):0
Temperature: 62 F (17 C)
Dew Point: 46 F (8 C)
Relative Humidity: 55%
Pressure (altimeter): 29.91 in. Hg (1013 hPa)
ob: YMAV 200500Z AUTO 02015KT 9999 // NCD 17/08 Q1013
cycle: 5

Station Type Date Time Source
YMAV TAF 2019/07/19 18:33 UTC NOAA

TAF YMAV 191711Z 1918/2018 36008KT 9999 FEW030
BECMG 1921/1923 01015G25KT 9999 FEW035
BECMG 2004/2006 01020G32KT CAVOK

Example: see airport list